Latest Coastal Weather Observations for Green Cape

IDN60701

Issued at 8:02 am EST Monday 22 April 2024 (issued every 10 minutes, with the page automatically refreshed every 10 minutes)

About coastal observations | Map of coastal stations | Coastal observations for NSW | Marine services | Other Formats
Station Details ID: 069137 Name: GREEN CAPE AWS Lat: -37.26 Lon: 150.05 Height: 19.4 m
Data from the previous 72 hours. | See also: Recent months at Green Cape
Date/Time
EST
Wind Sea
Height
m
Swell Vis
km
Cloud Weather Temp
°C
Press
MSL
hPa
Rain since
9am
mm
Dir  Spd
kts
Gust
kts
Height
m
Period
s
Dir
22/08:00am W 6 7 - - - - - - - 14.7 1028.8 0.0
22/07:30am W 5 6 - - - - - - - 15.2 1028.6 0.0
22/07:00am W 4 5 - - - - - - - 14.4 1028.2 0.0
22/06:30am W 5 6 - - - - - - - 14.4 1028.1 0.0
22/06:00am W 5 6 - - - - - - - 14.7 1028.1 0.0
22/05:30am W 6 7 - - - - - - - 14.7 1028.0 0.0
22/05:00am W 5 8 - - - - - - - 14.8 1027.9 0.0
22/04:30am W 7 9 - - - - - - - 15.0 1027.9 0.0
22/04:00am W 7 9 - - - - - - - 14.8 1027.9 0.0
22/03:30am W 8 10 - - - - - - - 14.8 1027.8 0.0
22/03:00am W 8 10 - - - - - - - 14.8 1027.9 0.0
22/02:30am W 8 11 - - - - - - - 14.7 1028.2 0.0
22/02:00am W 9 11 - - - - - - - 14.8 1028.6 0.0
22/01:30am W 9 12 - - - - - - - 14.6 1028.7 0.0
22/01:00am W 8 9 - - - - - - - 15.2 1029.0 0.0
22/12:30am WSW 11 13 - - - - - - - 16.1 1029.3 0.0
22/12:00am WSW 12 13 - - - - - - - 15.9 1029.3 0.0
 
Date/Time
EST
Wind Sea
Height
m
Swell Vis
km
Cloud Weather Temp
°C
Press
MSL
hPa
Rain since
9am
mm
Dir  Spd
kts
Gust
kts
Height
m
Period
s
Dir
21/11:30pm WSW 13 14 - - - - - - - 16.1 1029.4 0.0
21/11:00pm WSW 11 14 - - - - - - - 16.0 1029.6 0.0
21/10:30pm WSW 12 14 - - - - - - - 15.8 1029.7 0.0
21/10:00pm W 11 13 - - - - - - - 15.4 1029.7 0.0
21/09:30pm W 9 12 - - - - - - - 15.0 1029.7 0.0
21/09:00pm W 9 12 - - - - - - - 15.1 1029.6 0.0
21/08:30pm WSW 11 13 - - - - - - - 15.2 1029.6 0.0
21/08:00pm SW 12 14 - - - - - - - 15.4 1029.4 0.0
21/07:30pm SW 13 16 - - - - - - - 15.5 1029.3 0.0
21/07:00pm SSW 14 16 - - - - - - - 15.3 1028.9 0.0
21/06:30pm SSW 15 17 - - - - - - - 15.4 1028.4 0.0
21/06:00pm SSW 16 19 - - - - - - - 15.4 1027.9 0.0
21/05:30pm SSW 16 19 - - - - - - - 15.7 1027.4 0.0
21/05:00pm S 19 21 - - - - - - - 16.1 1027.2 0.0
21/04:30pm S 16 18 - - - - - - - 16.6 1027.2 0.0
21/04:00pm S 14 17 - - - - - - - 17.2 1027.2 0.0
21/03:30pm S 14 16 - - - - - - - 17.6 1027.3 0.0
21/03:00pm SSE 12 14 - - - - - - - 18.2 1027.4 0.0
21/02:30pm S 11 13 - - - - - - - 18.9 1027.5 0.0
21/02:00pm S 7 12 - - - - - - - 20.2 1027.6 0.0
21/01:30pm SSE 6 9 - - - - - - - 20.4 1027.6 0.0
21/01:00pm SE 4 6 - - - - - - - 20.3 1027.9 0.0
21/12:30pm SSE 5 7 - - - - - - - 20.9 1028.4 0.0
21/12:00pm S 4 5 - - - - - - - 19.4 1028.8 0.0
21/11:30am SW 4 6 - - - - - - - 18.5 1029.1 0.0
21/11:00am W 5 6 - - - - - - - 17.1 1029.5 0.0
21/10:30am W 8 10 - - - - - - - 16.7 1029.6 0.0
21/10:00am WNW 11 13 - - - - - - - 15.9 1029.6 0.0
21/09:30am W 11 13 - - - - - - - 15.3 1029.9 0.0
21/09:00am W 12 14 - - - - - - - 14.8 1030.0 0.0
21/08:30am W 12 14 - - - - - - - 14.8 1030.0 0.0
21/08:00am WNW 11 13 - - - - - - - 14.3 1029.8 0.0
21/07:30am W 11 13 - - - - - - - 14.2 1029.7 0.0
21/07:00am WNW 10 12 - - - - - - - 14.1 1029.3 0.0
21/06:30am W 11 13 - - - - - - - 14.1 1029.1 0.0
21/06:00am WNW 9 13 - - - - - - - 13.8 1029.1 0.0
21/05:30am WNW 9 14 - - - - - - - 13.6 1029.0 0.0
21/05:00am WNW 12 15 - - - - - - - 13.4 1029.0 0.0
21/04:30am WNW 10 13 - - - - - - - 13.0 1029.0 0.0
21/04:00am WNW 9 11 - - - - - - - 13.2 1028.8 0.0
21/03:30am WNW 9 11 - - - - - - - 12.9 1028.8 0.0
21/03:00am WNW 10 12 - - - - - - - 12.6 1028.9 0.0
21/02:30am W 10 12 - - - - - - - 12.7 1029.0 0.0
21/02:00am W 12 13 - - - - - - - 12.4 1029.0 0.0
21/01:30am W 9 10 - - - - - - - 13.3 1029.1 0.0
21/01:00am WNW 9 10 - - - - - - - 13.2 1029.2 0.0
21/12:30am WNW 9 11 - - - - - - - 13.3 1029.1 0.0
21/12:00am WNW 8 10 - - - - - - - 13.1 1029.0 0.0
 
Date/Time
EST
Wind Sea
Height
m
Swell Vis
km
Cloud Weather Temp
°C
Press
MSL
hPa
Rain since
9am
mm
Dir  Spd
kts
Gust
kts
Height
m
Period
s
Dir
20/11:30pm WNW 8 10 - - - - - - - 13.2 1029.1 0.0
20/11:00pm WNW 9 11 - - - - - - - 13.3 1029.1 0.0
20/10:30pm WNW 8 10 - - - - - - - 13.3 1029.4 0.0
20/10:00pm WNW 9 12 - - - - - - - 13.8 1029.5 0.0
20/09:30pm W 9 11 - - - - - - - 14.6 1029.6 0.0
20/09:00pm W 8 10 - - - - - - - 14.9 1029.7 0.0
20/08:30pm WSW 8 10 - - - - - - - 15.3 1029.7 0.0
20/08:00pm SW 10 12 - - - - - - - 15.9 1029.7 0.0
20/07:30pm SW 10 12 - - - - - - - 16.0 1029.7 0.0
20/07:00pm SSW 11 13 - - - - - - - 16.1 1029.6 0.0
20/06:30pm SSW 12 15 - - - - - - - 16.2 1029.4 0.0
20/06:00pm SSW 13 16 - - - - - - - 16.4 1029.0 0.0
20/05:30pm SSW 14 17 - - - - - - - 16.3 1028.7 0.0
20/05:00pm SSW 16 20 - - - - - - - 16.7 1028.5 0.0
20/04:30pm SSW 16 19 - - - - - - - 16.9 1028.2 0.0
20/04:00pm SSW 16 20 - - - - - - - 17.0 1028.1 0.0
20/03:30pm SSW 19 22 - - - - - - - 17.1 1028.0 0.0
20/03:00pm SSW 17 20 - - - - - - - 17.3 1027.8 0.0
20/02:30pm SSW 15 20 - - - - - - - 17.9 1027.8 0.0
20/02:00pm S 14 16 - - - - - - - 18.0 1027.8 0.0
20/01:30pm SSW 14 18 - - - - - - - 17.9 1027.7 0.0
20/01:00pm SSW 15 19 - - - - - - - 17.9 1027.9 0.0
20/12:30pm SSW 19 21 - - - - - - - 18.5 1028.0 0.0
20/12:00pm SSW 17 20 - - - - - - - 17.8 1028.2 0.0
20/11:30am SW 16 19 - - - - - - - 17.6 1028.5 0.0
20/11:00am SW 17 20 - - - - - - - 17.5 1028.5 0.0
20/10:30am SW 17 19 - - - - - - - 17.2 1028.3 0.0
20/10:00am SW 18 21 - - - - - - - 17.5 1027.9 0.0
20/09:30am SSW 19 22 - - - - - - - 17.4 1027.8 0.0
20/09:00am SW 17 21 - - - - - - - 16.9 1027.8 0.6
20/08:30am SSW 17 21 - - - - - - - 16.9 1027.8 0.6
20/08:00am SW 17 20 - - - - - - - 16.9 1027.5 0.6
20/07:30am SSW 19 23 - - - - - - - 16.9 1027.2 0.6
20/07:00am SSW 22 24 - - - - - - - 17.0 1026.5 0.6
20/06:30am SSW 20 23 - - - - - - - 17.2 1026.0 0.6
20/06:00am S 20 24 - - - - - - - 17.0 1025.9 0.6
20/05:30am S 21 24 - - - - - - - 17.0 1025.6 0.6
20/05:00am S 22 25 - - - - - - - 17.0 1025.2 0.6
20/04:30am SSW 17 25 - - - - - - - 16.6 1025.0 0.6
20/04:00am SW 14 19 - - - - - - - 16.5 1025.1 0.6
20/03:30am SW 17 20 - - - - - - - 16.4 1024.7 0.6
20/03:00am SW 15 19 - - - - - - - 16.1 1024.7 0.6
20/02:46am SSW 20 24 - - - - - - - 16.6 1024.5 0.6
20/02:30am SW 19 22 - - - - - - - 16.5 1024.5 0.6
20/02:00am SW 18 22 - - - - - - - 16.6 1024.5 0.6
20/01:30am SW 18 21 - - - - - - - 16.6 1024.6 0.6
20/01:00am SW 18 21 - - - - - - - 16.6 1024.6 0.6
20/12:30am SW 18 22 - - - - - - - 16.7 1024.5 0.6
20/12:00am SSW 19 21 - - - - - - - 16.7 1024.2 0.6
 
Date/Time
EST
Wind Sea
Height
m
Swell Vis
km
Cloud Weather Temp
°C
Press
MSL
hPa
Rain since
9am
mm
Dir  Spd
kts
Gust
kts
Height
m
Period
s
Dir
19/11:30pm SSW 19 23 - - - - - - - 16.9 1024.1 0.6
19/11:00pm SW 17 20 - - - - - - - 16.9 1024.3 0.6
19/10:38pm SW 19 25 - - - - - - - 17.1 1024.2 0.6
19/10:30pm SSW 21 25 - - - - - - - 17.4 1024.2 0.6
19/10:00pm SSW 20 23 - - - - - - - 17.7 1024.1 0.6
19/09:30pm SSW 22 25 - - - - - - - 17.5 1024.0 0.6
19/09:00pm SSW 19 24 - - - - - - - 17.4 1023.7 0.6
19/08:30pm SSW 18 22 - - - - - - - 17.5 1023.5 0.6
19/08:00pm SW 19 25 - - - - - - - 16.8 1023.1 0.6
19/07:30pm SW 19 21 - - - - - - - 16.8 1022.8 0.6
19/07:00pm SW 18 23 - - - - - - - 16.5 1022.4 0.6
19/06:30pm SW 14 17 - - - - - - - 16.2 1022.1 0.6
19/06:00pm SSW 21 27 - - - - - - Recent precip. 16.2 1021.5 0.4
19/05:36pm SW 21 31 - - - - - - - 15.9 1020.8 0.4
19/05:32pm SW 16 30 - - - - - - - 16.5 1021.0 0.2
19/05:30pm SW 15 18 - - - - - - - 16.3 1021.2 0.2
19/05:00pm SSW 16 21 - - - - - - - 15.9 1020.8 0.0
19/04:46pm SW 19 30 - - - - - - - 16.3 1020.3 0.0
19/04:30pm SW 20 25 - - - - - - - 16.1 1020.2 0.0
19/04:00pm SW 17 22 - - - - - - - 16.7 1019.9 0.0
19/03:30pm WSW 18 22 - - - - - - - 17.3 1019.6 0.0
19/03:16pm SW 20 24 - - - - - - - 17.8 1019.5 0.0
19/03:00pm SSW 20 23 - - - - - - - 18.5 1019.0 0.0
19/02:30pm SW 17 22 - - - - - - - 18.3 1018.8 0.0
19/02:00pm WSW 17 20 - - - - - - - 18.2 1018.7 0.0
19/01:30pm WSW 17 19 - - - - - - - 17.6 1018.5 0.0
19/01:00pm SW 17 21 - - - - - - - 17.1 1018.5 0.0
19/12:57pm SW 17 21 - - - - - - - 17.2 1018.5 0.0
19/12:30pm SSW 24 27 - - - - - - - 17.2 1018.1 0.0
19/12:21pm SSW 18 25 - - - - - - - 18.3 1018.2 0.0
19/12:00pm SW 14 17 - - - - - - - 19.0 1018.4 0.0
19/11:30am WSW 17 22 - - - - - - - 18.3 1018.2 0.0
19/11:00am WSW 18 23 - - - - - - - 17.6 1018.2 0.0
19/10:30am WSW 18 22 - - - - - - - 17.3 1017.9 0.0
19/10:00am WSW 18 22 - - - - - - - 16.3 1018.0 0.0
19/09:30am W 14 19 - - - - - - - 16.0 1017.7 0.0
19/09:00am W 15 18 - - - - - - - 15.2 1017.8 0.0
19/08:30am WSW 17 21 - - - - - - - 15.0 1017.5 0.0

Other formats

Comma delimited format used in spreadsheet applications
http://www.bom.gov.au/fwo/IDN60701/IDN60701.94934.axf

JavaScript Object Notation format (JSON) in row-major order
http://www.bom.gov.au/fwo/IDN60701/IDN60701.94934.json

Data quality

Most of these data are generated automatically and are frequently updated. Quality checks on data are not normally performed. It is possible for incorrect values to appear. Refer to information at About Latest Weather Observations and please check the disclaimer before using these data.